createdAt,value
2018-08-19T00:02:07.967Z,62.07
2018-08-19T00:04:37.384Z,61.94
2018-08-19T00:07:05.272Z,62.31
2018-08-19T00:09:33.324Z,62.37
2018-08-19T00:12:01.201Z,61.98
2018-08-19T00:14:31.848Z,62.23
2018-08-19T00:17:00.500Z,61.94
2018-08-19T00:19:28.871Z,61.87
2018-08-19T00:21:56.671Z,62.11
2018-08-19T00:24:24.647Z,62.31
2018-08-19T00:26:52.360Z,62.40
2018-08-19T00:29:25.504Z,62.64
2018-08-19T00:31:53.983Z,63.07
2018-08-19T00:34:29.988Z,62.65
2018-08-19T00:36:57.937Z,62.29
2018-08-19T00:39:25.590Z,62.84
2018-08-19T00:41:53.403Z,62.56
2018-08-19T00:44:21.180Z,62.62
2018-08-19T00:46:48.886Z,62.60
2018-08-19T00:49:16.507Z,63.00
2018-08-19T00:51:49.628Z,62.54
2018-08-19T00:54:17.349Z,62.96
2018-08-19T00:56:47.045Z,62.49
2018-08-19T00:59:14.662Z,63.02
2018-08-19T01:01:44.017Z,62.54
2018-08-19T01:04:11.755Z,63.05
2018-08-19T01:06:45.047Z,62.60
2018-08-19T01:09:12.722Z,62.97
2018-08-19T01:11:41.844Z,63.03
2018-08-19T01:14:11.060Z,63.03
2018-08-19T01:16:38.805Z,63.31
2018-08-19T01:19:06.812Z,63.03
2018-08-19T01:21:34.507Z,63.27
2018-08-19T01:24:04.277Z,63.22
2018-08-19T01:26:34.472Z,63.47
2018-08-19T01:29:02.159Z,63.10
2018-08-19T01:31:29.824Z,63.34
2018-08-19T01:33:57.589Z,63.53
2018-08-19T01:36:26.838Z,63.43
2018-08-19T01:38:54.450Z,63.29
2018-08-19T01:41:22.137Z,63.73
2018-08-19T01:44:00.837Z,63.42
2018-08-19T01:46:31.891Z,63.39
2018-08-19T01:48:59.525Z,63.16
2018-08-19T01:51:27.219Z,63.01
2018-08-19T01:53:54.863Z,63.09
2018-08-19T01:56:22.436Z,63.43
2018-08-19T01:58:50.067Z,63.17
2018-08-19T02:01:17.719Z,63.35
2018-08-19T02:03:45.376Z,63.43
2018-08-19T02:06:13.039Z,63.56
2018-08-19T02:08:40.742Z,63.53
2018-08-19T02:11:24.099Z,63.97
2018-08-19T02:13:53.574Z,63.89
2018-08-19T02:16:21.334Z,64.15
2018-08-19T02:18:48.978Z,64.13
2018-08-19T02:21:16.641Z,64.00
2018-08-19T02:23:44.312Z,64.61
2018-08-19T02:26:15.092Z,64.45
2018-08-19T02:28:42.734Z,64.27
2018-08-19T02:31:10.544Z,64.56
2018-08-19T02:33:38.120Z,64.23
2018-08-19T02:36:06.877Z,64.42
2018-08-19T02:38:35.384Z,64.86
2018-08-19T02:41:03.123Z,64.71
2018-08-19T02:43:30.877Z,64.56
2018-08-19T02:45:58.551Z,64.78
2018-08-19T02:48:45.257Z,64.44
2018-08-19T02:51:15.760Z,64.66
2018-08-19T02:53:44.658Z,64.73
2018-08-19T02:56:13.162Z,64.53
2018-08-19T02:58:41.402Z,64.67
2018-08-19T03:01:09.316Z,64.43
2018-08-19T03:03:36.975Z,64.09
2018-08-19T03:06:04.695Z,64.16
2018-08-19T03:08:32.426Z,64.22
2018-08-19T03:11:00.041Z,64.18
2018-08-19T03:13:27.677Z,64.20
2018-08-19T03:15:56.303Z,64.13
2018-08-19T03:18:24.099Z,64.48
2018-08-19T03:20:51.754Z,64.85
2018-08-19T03:23:19.426Z,64.69
2018-08-19T03:25:47.064Z,64.66
2018-08-19T03:28:14.695Z,64.55
2018-08-19T03:30:47.939Z,64.58
2018-08-19T03:33:15.582Z,64.54
2018-08-19T03:35:43.151Z,64.41
2018-08-19T03:38:13.927Z,64.25
2018-08-19T03:40:41.597Z,64.06
2018-08-19T03:43:09.907Z,64.23
2018-08-19T03:45:37.573Z,64.41
2018-08-19T03:48:05.305Z,64.50
2018-08-19T03:50:36.637Z,64.70
2018-08-19T03:53:04.565Z,64.54
2018-08-19T03:55:32.955Z,64.27
2018-08-19T03:58:02.459Z,65.27
2018-08-19T04:00:32.204Z,65.22
2018-08-19T04:02:59.891Z,65.12
2018-08-19T04:06:00.040Z,65.36
2018-08-19T04:08:33.834Z,65.10
2018-08-19T04:11:04.390Z,65.14
2018-08-19T04:13:34.495Z,65.08
2018-08-19T04:16:04.738Z,65.52
2018-08-19T04:18:34.540Z,64.75
2018-08-19T04:21:17.423Z,64.90
2018-08-19T04:23:47.831Z,64.98
2018-08-19T04:26:15.458Z,64.96
2018-08-19T04:28:44.118Z,64.51
2018-08-19T04:31:17.191Z,64.73
2018-08-19T04:33:47.216Z,64.59
2018-08-19T04:36:16.289Z,64.64
2018-08-19T04:38:44.000Z,64.10
2018-08-19T04:41:12.047Z,64.07
2018-08-19T04:43:39.706Z,64.56
2018-08-19T04:46:07.380Z,65.35
2018-08-19T04:48:35.045Z,65.23
2018-08-19T04:51:02.690Z,64.69
2018-08-19T04:53:31.747Z,65.05
2018-08-19T04:55:59.627Z,64.65
2018-08-19T04:58:27.241Z,64.90
2018-08-19T05:00:54.844Z,64.46
2018-08-19T05:03:22.531Z,64.84
2018-08-19T05:05:50.151Z,64.17
2018-08-19T05:08:17.920Z,64.41
2018-08-19T05:10:45.526Z,64.25
2018-08-19T05:13:13.342Z,64.37
2018-08-19T05:15:41.633Z,63.96
2018-08-19T05:18:09.531Z,64.09
2018-08-19T05:20:37.199Z,63.63
2018-08-19T05:23:04.938Z,64.07
2018-08-19T05:25:32.727Z,63.94
2018-08-19T05:28:06.594Z,63.99
2018-08-19T05:30:35.221Z,63.46
2018-08-19T05:33:04.058Z,63.71
2018-08-19T05:35:32.742Z,63.56
2018-08-19T05:38:01.509Z,63.44
2018-08-19T05:40:29.374Z,63.29
2018-08-19T05:42:57.072Z,63.13
2018-08-19T05:45:24.722Z,63.16
2018-08-19T05:48:04.583Z,63.28
2018-08-19T05:50:32.428Z,62.80
2018-08-19T05:53:00.045Z,62.59
2018-08-19T05:55:27.790Z,61.97
2018-08-19T05:57:55.436Z,61.36
2018-08-19T06:00:24.167Z,61.46
2018-08-19T06:02:52.998Z,60.65
2018-08-19T06:05:20.788Z,60.58
2018-08-19T06:07:55.740Z,59.81
2018-08-19T06:10:24.121Z,60.22
2018-08-19T06:12:51.734Z,59.70
2018-08-19T06:15:19.533Z,59.90
2018-08-19T06:17:47.181Z,59.19
2018-08-19T06:20:14.964Z,59.33
2018-08-19T06:22:42.591Z,58.81
2018-08-19T06:25:10.951Z,59.09
2018-08-19T06:27:44.702Z,58.80
2018-08-19T06:30:13.303Z,58.66
2018-08-19T06:32:41.102Z,57.80
2018-08-19T06:35:08.882Z,57.46
2018-08-19T06:37:36.529Z,57.25
2018-08-19T06:40:05.520Z,56.50
2018-08-19T06:42:33.179Z,55.44
2018-08-19T06:45:00.811Z,55.55
2018-08-19T06:47:29.574Z,53.29
2018-08-19T06:49:58.449Z,53.17
2018-08-19T06:52:26.600Z,53.65
2018-08-19T06:54:54.526Z,53.18
2018-08-19T06:57:22.247Z,52.83
2018-08-19T06:59:50.018Z,52.46
2018-08-19T07:02:17.786Z,52.65
2018-08-19T07:04:46.686Z,51.03
2018-08-19T07:07:15.496Z,50.76
2018-08-19T07:09:43.208Z,50.46
2018-08-19T07:12:17.341Z,49.56
2018-08-19T07:14:45.535Z,49.88
2018-08-19T07:17:13.506Z,49.40
2018-08-19T07:19:41.256Z,48.82
2018-08-19T07:22:09.351Z,48.23
2018-08-19T07:24:38.835Z,48.67
2018-08-19T07:27:08.250Z,48.85
2018-08-19T07:29:35.912Z,47.55
2018-08-19T07:32:03.738Z,47.36
2018-08-19T07:34:31.429Z,47.30
2018-08-19T07:36:59.152Z,47.03
2018-08-19T07:39:27.191Z,46.52
2018-08-19T07:41:55.035Z,45.78
2018-08-19T07:44:22.770Z,45.12
2018-08-19T07:46:50.448Z,45.57
2018-08-19T07:49:18.100Z,45.28
2018-08-19T07:51:45.911Z,44.39
2018-08-19T07:54:13.450Z,44.08
2018-08-19T07:56:41.102Z,42.95
2018-08-19T07:59:10.174Z,42.44
2018-08-19T08:01:38.738Z,42.97
2018-08-19T08:04:06.902Z,42.87
2018-08-19T08:06:35.138Z,42.00
2018-08-19T08:09:06.033Z,41.21
2018-08-19T08:11:34.121Z,40.17
2018-08-19T08:14:02.334Z,39.80
2018-08-19T08:16:30.148Z,38.27
2018-08-19T08:18:58.063Z,38.12
2018-08-19T08:21:29.129Z,38.47
2018-08-19T08:23:56.946Z,36.42
2018-08-19T08:26:25.013Z,36.05
2018-08-19T08:28:58.078Z,35.43
2018-08-19T08:31:25.823Z,35.23
2018-08-19T08:33:53.429Z,34.37
2018-08-19T08:36:21.086Z,33.34
2018-08-19T08:38:48.823Z,33.48
2018-08-19T08:41:16.421Z,32.17
2018-08-19T08:43:44.120Z,32.03
2018-08-19T08:46:11.847Z,31.68
2018-08-19T08:48:39.536Z,30.63
2018-08-19T08:51:07.192Z,30.19
2018-08-19T08:53:42.144Z,30.30
2018-08-19T08:56:09.842Z,28.94
2018-08-19T08:58:37.509Z,29.09
2018-08-19T09:01:05.245Z,29.21
2018-08-19T09:03:32.894Z,28.35
2018-08-19T09:06:00.515Z,28.45
2018-08-19T09:08:28.438Z,28.17
2018-08-19T09:10:57.381Z,27.25
2018-08-19T09:13:25.052Z,26.54
2018-08-19T09:15:52.699Z,26.71
2018-08-19T09:18:20.415Z,25.97
2018-08-19T09:20:48.027Z,26.15
2018-08-19T09:23:15.824Z,25.29
2018-08-19T09:25:43.394Z,24.68
2018-08-19T09:28:11.080Z,25.05
2018-08-19T09:30:41.423Z,25.17
2018-08-19T09:33:09.374Z,24.37
2018-08-19T09:35:38.091Z,23.89
2018-08-19T09:38:13.122Z,24.46
2018-08-19T09:40:41.095Z,24.44
2018-08-19T09:43:09.130Z,23.90
2018-08-19T09:45:37.020Z,24.11
2018-08-19T09:48:05.383Z,23.40
2018-08-19T09:50:33.974Z,23.92
2018-08-19T09:53:01.899Z,24.03
2018-08-19T09:55:35.039Z,24.53
2018-08-19T09:58:02.838Z,25.07
2018-08-19T10:00:36.076Z,24.85
2018-08-19T10:03:03.888Z,25.21
2018-08-19T10:05:33.448Z,25.24
2018-08-19T10:08:01.312Z,24.71
2018-08-19T10:10:29.554Z,23.74
2018-08-19T10:12:57.319Z,23.64
2018-08-19T10:15:24.952Z,23.64
2018-08-19T10:17:52.609Z,23.86
2018-08-19T10:20:20.294Z,23.95
2018-08-19T10:22:48.027Z,23.74
2018-08-19T10:25:17.662Z,24.73
2018-08-19T10:27:49.755Z,23.86
2018-08-19T10:30:18.484Z,23.38
2018-08-19T10:32:50.211Z,23.66
2018-08-19T10:35:18.375Z,23.21
2018-08-19T10:37:46.500Z,22.22
2018-08-19T10:40:14.211Z,21.91
2018-08-19T10:42:42.122Z,22.05
2018-08-19T10:45:17.245Z,21.13
2018-08-19T10:47:44.924Z,21.49
2018-08-19T10:50:12.620Z,20.97
2018-08-19T10:52:41.436Z,21.32
2018-08-19T10:55:10.086Z,21.01
2018-08-19T10:57:38.083Z,20.80
2018-08-19T11:00:10.600Z,20.62
2018-08-19T11:02:38.275Z,20.85
2018-08-19T11:05:05.956Z,19.81
2018-08-19T11:07:33.591Z,19.59
2018-08-19T11:10:16.768Z,19.33
2018-08-19T11:12:45.198Z,18.75
2018-08-19T11:15:27.412Z,18.40
2018-08-19T11:17:55.464Z,18.88
2018-08-19T11:20:38.627Z,18.63
2018-08-19T11:23:10.786Z,18.48
2018-08-19T11:25:38.395Z,18.12
2018-08-19T11:28:48.569Z,18.37
2018-08-19T11:31:23.689Z,16.71
2018-08-19T11:33:52.372Z,16.26
2018-08-19T11:36:21.590Z,16.97
2018-08-19T11:38:50.998Z,16.03
2018-08-19T11:41:19.150Z,15.96
2018-08-19T11:43:47.948Z,16.08
2018-08-19T11:46:15.662Z,15.71
2018-08-19T11:48:43.490Z,15.87
2018-08-19T11:51:11.435Z,15.42
2018-08-19T11:53:39.074Z,15.74
2018-08-19T11:56:06.892Z,16.19
2018-08-19T11:58:44.229Z,15.86
2018-08-19T12:01:13.041Z,15.26
2018-08-19T12:03:54.568Z,14.65
2018-08-19T12:06:24.717Z,14.94
2018-08-19T12:08:53.444Z,15.42
2018-08-19T12:11:21.208Z,15.16
2018-08-19T12:13:52.070Z,14.67
2018-08-19T12:16:21.731Z,15.52
2018-08-19T12:18:49.671Z,14.74
2018-08-19T12:21:17.403Z,14.32
2018-08-19T12:23:45.143Z,14.29
2018-08-19T12:26:12.718Z,14.29
2018-08-19T12:28:40.347Z,15.29
2018-08-19T12:31:10.196Z,14.91
2018-08-19T12:33:37.787Z,16.23
2018-08-19T12:36:06.118Z,17.12
2018-08-19T12:38:33.788Z,16.40
2018-08-19T12:41:03.511Z,17.11
2018-08-19T12:43:31.780Z,16.49
2018-08-19T12:45:59.932Z,15.86
2018-08-19T12:48:27.771Z,17.26
2018-08-19T12:50:59.953Z,18.57
2018-08-19T12:53:27.529Z,17.59
2018-08-19T12:55:55.168Z,16.93
2018-08-19T12:58:22.942Z,15.93
2018-08-19T13:00:50.544Z,15.94
2018-08-19T13:03:18.233Z,15.35
2018-08-19T13:05:59.471Z,15.10
2018-08-19T13:08:27.240Z,14.43
2018-08-19T13:10:54.920Z,14.59
2018-08-19T13:13:22.618Z,14.47
2018-08-19T13:15:50.254Z,14.26
2018-08-19T13:18:28.263Z,14.27
2018-08-19T13:21:03.186Z,13.90
2018-08-19T13:23:32.554Z,14.39
2018-08-19T13:26:00.636Z,13.87
2018-08-19T13:28:28.403Z,13.85
2018-08-19T13:30:56.283Z,13.60
2018-08-19T13:33:24.723Z,13.90
2018-08-19T13:35:52.621Z,13.78
2018-08-19T13:38:33.259Z,13.69
2018-08-19T13:41:02.664Z,14.25
2018-08-19T13:43:30.317Z,15.24
2018-08-19T13:45:58.040Z,17.57
2018-08-19T13:48:25.706Z,17.97
2018-08-19T13:50:53.344Z,16.65
2018-08-19T13:53:21.096Z,16.21
2018-08-19T13:55:48.723Z,15.62
2018-08-19T13:58:16.529Z,15.72
2018-08-19T14:00:44.629Z,15.71
2018-08-19T14:03:12.526Z,17.28
2018-08-19T14:05:40.309Z,18.08
2018-08-19T14:08:07.924Z,19.31
2018-08-19T14:10:35.543Z,18.95
2018-08-19T14:13:03.452Z,18.98
2018-08-19T14:15:31.163Z,17.92
2018-08-19T14:17:58.774Z,17.71
2018-08-19T14:20:26.400Z,18.02
2018-08-19T14:22:54.134Z,17.18
2018-08-19T14:25:21.872Z,18.42
2018-08-19T14:27:49.519Z,20.04
2018-08-19T14:30:17.470Z,19.90
2018-08-19T14:32:46.091Z,18.58
2018-08-19T14:35:13.736Z,17.83
2018-08-19T14:37:41.636Z,17.11
2018-08-19T14:40:13.453Z,17.26
2018-08-19T14:42:41.259Z,15.95
2018-08-19T14:45:08.934Z,15.82
2018-08-19T14:47:36.555Z,15.78
2018-08-19T14:50:08.106Z,16.20
2018-08-19T14:52:35.804Z,16.63
2018-08-19T14:55:03.648Z,16.14
2018-08-19T14:57:31.301Z,16.24
2018-08-19T14:59:59.002Z,16.25
2018-08-19T15:02:26.610Z,16.11
2018-08-19T15:04:54.229Z,16.37
2018-08-19T15:07:21.878Z,16.31
2018-08-19T15:09:51.104Z,16.40
2018-08-19T15:12:22.957Z,16.72
2018-08-19T15:14:51.018Z,16.71
2018-08-19T15:17:18.727Z,16.66
2018-08-19T15:19:48.635Z,16.92
2018-08-19T15:22:16.475Z,16.88
2018-08-19T15:24:44.064Z,17.35
2018-08-19T15:27:11.754Z,17.56
2018-08-19T15:29:41.939Z,18.01
2018-08-19T15:32:09.946Z,18.46
2018-08-19T15:34:37.463Z,18.22
2018-08-19T15:37:05.320Z,19.13
2018-08-19T15:39:32.929Z,18.82
2018-08-19T15:42:00.571Z,19.17
2018-08-19T15:44:28.239Z,19.36
2018-08-19T15:46:55.860Z,19.72
2018-08-19T15:49:24.022Z,20.54
2018-08-19T15:51:51.901Z,21.64
2018-08-19T15:54:19.622Z,22.09
2018-08-19T15:56:47.315Z,22.39
2018-08-19T15:59:14.907Z,22.55
2018-08-19T16:01:42.703Z,24.06
2018-08-19T16:04:21.989Z,24.33
2018-08-19T16:06:51.142Z,24.51
2018-08-19T16:09:20.111Z,25.77
2018-08-19T16:11:48.415Z,25.58
2018-08-19T16:14:22.150Z,26.11
2018-08-19T16:16:49.868Z,27.24
2018-08-19T16:19:17.592Z,27.40
2018-08-19T16:21:46.642Z,27.04
2018-08-19T16:24:14.294Z,28.03
2018-08-19T16:26:42.188Z,27.66
2018-08-19T16:29:09.808Z,27.98
2018-08-19T16:31:37.644Z,27.79
2018-08-19T16:34:05.533Z,28.37
2018-08-19T16:36:33.244Z,28.94
2018-08-19T16:39:01.047Z,28.25
2018-08-19T16:41:28.848Z,28.84
2018-08-19T16:43:56.758Z,28.95
2018-08-19T16:46:24.546Z,29.48
2018-08-19T16:48:52.226Z,29.71
2018-08-19T16:51:20.001Z,30.22
2018-08-19T16:53:47.627Z,30.48
2018-08-19T16:56:15.314Z,30.30
2018-08-19T16:58:42.930Z,31.64
2018-08-19T17:01:10.704Z,34.21
2018-08-19T17:03:39.422Z,34.43
2018-08-19T17:06:10.071Z,32.60
2018-08-19T17:08:38.155Z,33.17
2018-08-19T17:11:06.028Z,33.20
2018-08-19T17:13:33.683Z,34.69
2018-08-19T17:16:01.316Z,34.46
2018-08-19T17:18:28.992Z,34.49
2018-08-19T17:20:56.632Z,35.63
2018-08-19T17:23:24.786Z,35.77
2018-08-19T17:25:52.390Z,36.02
2018-08-19T17:28:22.075Z,36.36
2018-08-19T17:30:51.293Z,36.21
2018-08-19T17:33:23.364Z,36.71
2018-08-19T17:35:50.981Z,36.79
2018-08-19T17:38:18.679Z,36.51
2018-08-19T17:40:46.329Z,36.22
2018-08-19T17:43:13.923Z,35.57
2018-08-19T17:45:41.798Z,35.62
2018-08-19T17:48:09.597Z,35.62
2018-08-19T17:50:37.579Z,36.00
2018-08-19T17:53:05.687Z,37.36
2018-08-19T17:55:33.450Z,37.55
2018-08-19T17:58:01.223Z,37.11
2018-08-19T18:00:28.904Z,36.87
2018-08-19T18:02:56.531Z,36.92
2018-08-19T18:05:24.210Z,37.02
2018-08-19T18:07:52.878Z,37.01
2018-08-19T18:10:20.532Z,37.38
2018-08-19T18:12:48.447Z,38.78
2018-08-19T18:15:16.311Z,37.02
2018-08-19T18:17:57.308Z,37.71
2018-08-19T18:20:26.505Z,38.15
2018-08-19T18:22:55.530Z,38.10
2018-08-19T18:25:24.506Z,38.06
2018-08-19T18:27:52.134Z,39.41
2018-08-19T18:30:21.609Z,39.28
2018-08-19T18:32:49.948Z,39.18
2018-08-19T18:35:17.811Z,39.03
2018-08-19T18:37:45.692Z,40.39
2018-08-19T18:40:33.222Z,41.12
2018-08-19T18:43:01.623Z,41.81
2018-08-19T18:45:29.419Z,42.13
2018-08-19T18:48:01.922Z,42.80
2018-08-19T18:50:29.637Z,42.92
2018-08-19T18:52:57.339Z,42.44
2018-08-19T18:55:25.164Z,42.60
2018-08-19T18:57:54.859Z,43.26
2018-08-19T19:00:24.422Z,42.20
2018-08-19T19:02:59.144Z,42.54
2018-08-19T19:05:38.920Z,42.78
2018-08-19T19:08:17.197Z,43.21
2018-08-19T19:11:19.351Z,43.39
2018-08-19T19:13:47.307Z,42.58
2018-08-19T19:16:19.058Z,43.08
2018-08-19T19:18:46.694Z,43.65
2018-08-19T19:21:14.302Z,44.13
2018-08-19T19:23:43.701Z,43.68
2018-08-19T19:26:11.455Z,44.58
2018-08-19T19:28:39.081Z,44.74
2018-08-19T19:31:11.739Z,44.01
2018-08-19T19:33:39.391Z,44.05
2018-08-19T19:36:15.641Z,44.06
2018-08-19T19:38:59.022Z,43.71
2018-08-19T19:41:31.733Z,44.21
2018-08-19T19:45:04.136Z,44.90
2018-08-19T19:47:31.759Z,44.08
2018-08-19T19:49:59.663Z,44.58
2018-08-19T19:52:27.705Z,45.27
2018-08-19T19:54:55.404Z,45.16
2018-08-19T19:57:23.066Z,44.10
2018-08-19T19:59:50.742Z,45.05
2018-08-19T20:02:30.925Z,45.73
2018-08-19T20:04:59.099Z,45.27
2018-08-19T20:07:27.193Z,45.40
2018-08-19T20:09:54.945Z,45.42
2018-08-19T20:12:28.595Z,45.97
2018-08-19T20:14:57.211Z,45.94
2018-08-19T20:17:24.798Z,46.58
2018-08-19T20:19:52.383Z,46.76
2018-08-19T20:22:20.150Z,46.78
2018-08-19T20:24:47.889Z,47.20
2018-08-19T20:27:15.974Z,46.97
2018-08-19T20:29:43.751Z,46.69
2018-08-19T20:32:11.370Z,46.65
2018-08-19T20:34:39.014Z,46.71
2018-08-19T20:37:06.656Z,46.91
2018-08-19T20:39:34.303Z,47.75
2018-08-19T20:42:01.932Z,47.45
2018-08-19T20:44:29.622Z,47.05
2018-08-19T20:46:57.823Z,46.77
2018-08-19T20:49:26.395Z,46.73
2018-08-19T20:51:55.061Z,47.29
2018-08-19T20:54:22.702Z,46.52
2018-08-19T20:56:50.300Z,46.70
2018-08-19T20:59:25.471Z,46.80
2018-08-19T21:01:53.223Z,47.06
2018-08-19T21:04:20.873Z,47.67
2018-08-19T21:06:48.536Z,46.83
2018-08-19T21:09:16.120Z,46.47
2018-08-19T21:11:43.704Z,46.68
2018-08-19T21:14:11.491Z,47.07
2018-08-19T21:16:39.093Z,46.56
2018-08-19T21:19:06.939Z,46.81
2018-08-19T21:21:34.852Z,47.09
2018-08-19T21:24:02.475Z,47.37
2018-08-19T21:26:30.124Z,47.59
2018-08-19T21:29:03.408Z,47.92
2018-08-19T21:31:32.095Z,48.20
2018-08-19T21:33:59.962Z,47.71
2018-08-19T21:36:27.864Z,48.42
2018-08-19T21:38:55.714Z,47.76
2018-08-19T21:41:31.316Z,48.98
2018-08-19T21:43:58.912Z,49.05
2018-08-19T21:46:26.752Z,48.39
2018-08-19T21:48:54.454Z,48.79
2018-08-19T21:51:22.036Z,48.31
2018-08-19T21:53:49.621Z,48.16
2018-08-19T21:56:17.234Z,48.23
2018-08-19T21:58:44.832Z,48.31
2018-08-19T22:01:18.118Z,48.63
2018-08-19T22:03:48.941Z,48.92
2018-08-19T22:06:16.622Z,49.30
2018-08-19T22:08:44.380Z,48.37
2018-08-19T22:11:12.040Z,48.77
2018-08-19T22:13:39.661Z,48.48
2018-08-19T22:16:07.347Z,48.86
2018-08-19T22:18:35.131Z,48.59
2018-08-19T22:21:23.840Z,48.64
2018-08-19T22:23:55.112Z,48.91
2018-08-19T22:26:22.756Z,48.29
2018-08-19T22:29:06.989Z,48.90
2018-08-19T22:31:34.652Z,49.96
2018-08-19T22:34:02.262Z,49.73
2018-08-19T22:36:30.095Z,50.06
2018-08-19T22:38:57.720Z,50.07
2018-08-19T22:41:27.705Z,49.54
2018-08-19T22:43:56.028Z,50.47
2018-08-19T22:46:24.015Z,49.77
2018-08-19T22:48:52.818Z,48.76
2018-08-19T22:51:20.801Z,49.58
2018-08-19T22:53:51.222Z,50.16
2018-08-19T22:56:19.427Z,50.65
2018-08-19T22:58:47.130Z,50.49
2018-08-19T23:01:14.917Z,50.82
2018-08-19T23:03:42.674Z,51.02
2018-08-19T23:06:10.350Z,51.11
2018-08-19T23:08:38.201Z,49.87
2018-08-19T23:11:05.854Z,50.28
2018-08-19T23:13:44.846Z,50.52
2018-08-19T23:16:13.037Z,50.79
2018-08-19T23:18:41.477Z,51.92
2018-08-19T23:21:09.498Z,51.46
2018-08-19T23:23:37.238Z,52.02
2018-08-19T23:26:05.295Z,51.80
2018-08-19T23:28:32.930Z,51.98
2018-08-19T23:31:00.547Z,51.81
2018-08-19T23:33:28.179Z,52.19
2018-08-19T23:35:55.783Z,52.26
2018-08-19T23:38:23.415Z,52.23
2018-08-19T23:40:51.096Z,51.98
2018-08-19T23:43:18.763Z,52.54
2018-08-19T23:45:46.413Z,52.92
2018-08-19T23:48:13.991Z,52.84
2018-08-19T23:50:41.633Z,52.64
2018-08-19T23:53:10.566Z,52.50
2018-08-19T23:55:38.585Z,53.16
2018-08-19T23:58:06.398Z,53.58
